sensor_id;sensor_type;location;lat;lon;timestamp;P1;durP1;ratioP1;P2;durP2;ratioP2
77123;SDS011;66079;47.646;19.130;2022-12-18T00:02:56;27.48;;;11.25;;
77123;SDS011;66079;47.646;19.130;2022-12-18T00:05:59;26.92;;;10.07;;
77123;SDS011;66079;47.646;19.130;2022-12-18T00:09:02;25.52;;;9.75;;
77123;SDS011;66079;47.646;19.130;2022-12-18T00:12:05;25.25;;;10.77;;
77123;SDS011;66079;47.646;19.130;2022-12-18T00:15:16;26.75;;;10.85;;
77123;SDS011;66079;47.646;19.130;2022-12-18T00:18:19;25.67;;;9.70;;
77123;SDS011;66079;47.646;19.130;2022-12-18T00:21:22;30.48;;;10.40;;
77123;SDS011;66079;47.646;19.130;2022-12-18T00:24:24;23.15;;;8.93;;
77123;SDS011;66079;47.646;19.130;2022-12-18T00:27:27;22.93;;;9.47;;
77123;SDS011;66079;47.646;19.130;2022-12-18T00:30:30;23.52;;;9.35;;
77123;SDS011;66079;47.646;19.130;2022-12-18T00:33:32;24.70;;;9.98;;
77123;SDS011;66079;47.646;19.130;2022-12-18T00:36:35;26.45;;;9.82;;
77123;SDS011;66079;47.646;19.130;2022-12-18T00:39:38;23.02;;;10.98;;
77123;SDS011;66079;47.646;19.130;2022-12-18T00:42:40;29.67;;;10.63;;
77123;SDS011;66079;47.646;19.130;2022-12-18T00:45:58;27.35;;;10.63;;
77123;SDS011;66079;47.646;19.130;2022-12-18T00:49:01;28.53;;;10.83;;
77123;SDS011;66079;47.646;19.130;2022-12-18T00:52:03;31.45;;;11.55;;
77123;SDS011;66079;47.646;19.130;2022-12-18T00:55:06;27.13;;;11.50;;
77123;SDS011;66079;47.646;19.130;2022-12-18T00:58:09;30.13;;;11.27;;
77123;SDS011;66079;47.646;19.130;2022-12-18T01:01:13;30.52;;;11.20;;
77123;SDS011;66079;47.646;19.130;2022-12-18T01:04:16;29.83;;;11.57;;
77123;SDS011;66079;47.646;19.130;2022-12-18T01:07:20;31.73;;;11.73;;
77123;SDS011;66079;47.646;19.130;2022-12-18T01:10:22;30.15;;;10.88;;
77123;SDS011;66079;47.646;19.130;2022-12-18T01:13:26;29.52;;;11.88;;
77123;SDS011;66079;47.646;19.130;2022-12-18T01:16:29;30.23;;;11.27;;
77123;SDS011;66079;47.646;19.130;2022-12-18T01:19:32;28.40;;;11.90;;
77123;SDS011;66079;47.646;19.130;2022-12-18T01:22:35;29.98;;;11.57;;
77123;SDS011;66079;47.646;19.130;2022-12-18T01:25:38;30.08;;;11.70;;
77123;SDS011;66079;47.646;19.130;2022-12-18T01:28:44;25.87;;;12.07;;
77123;SDS011;66079;47.646;19.130;2022-12-18T01:31:46;28.98;;;10.98;;
77123;SDS011;66079;47.646;19.130;2022-12-18T01:34:49;35.97;;;13.73;;
77123;SDS011;66079;47.646;19.130;2022-12-18T01:37:55;33.78;;;13.30;;
77123;SDS011;66079;47.646;19.130;2022-12-18T01:40:58;31.97;;;13.97;;
77123;SDS011;66079;47.646;19.130;2022-12-18T01:44:46;34.55;;;13.18;;
77123;SDS011;66079;47.646;19.130;2022-12-18T01:50:47;29.07;;;12.00;;
77123;SDS011;66079;47.646;19.130;2022-12-18T01:53:52;31.65;;;12.70;;
77123;SDS011;66079;47.646;19.130;2022-12-18T01:56:54;30.10;;;12.20;;
77123;SDS011;66079;47.646;19.130;2022-12-18T01:59:59;25.58;;;10.43;;
77123;SDS011;66079;47.646;19.130;2022-12-18T02:03:14;29.38;;;11.15;;
77123;SDS011;66079;47.646;19.130;2022-12-18T02:09:24;29.73;;;11.45;;
77123;SDS011;66079;47.646;19.130;2022-12-18T02:29:38;36.60;;;12.43;;
77123;SDS011;66079;47.646;19.130;2022-12-18T02:32:49;29.50;;;12.43;;
77123;SDS011;66079;47.646;19.130;2022-12-18T02:35:54;30.95;;;12.38;;
77123;SDS011;66079;47.646;19.130;2022-12-18T02:39:00;35.47;;;13.43;;
77123;SDS011;66079;47.646;19.130;2022-12-18T02:42:04;28.42;;;11.55;;
77123;SDS011;66079;47.646;19.130;2022-12-18T02:45:10;30.13;;;12.03;;
77123;SDS011;66079;47.646;19.130;2022-12-18T02:48:13;27.27;;;11.73;;
77123;SDS011;66079;47.646;19.130;2022-12-18T02:51:33;32.70;;;12.35;;
77123;SDS011;66079;47.646;19.130;2022-12-18T02:55:05;30.63;;;11.57;;
77123;SDS011;66079;47.646;19.130;2022-12-18T03:04:55;26.48;;;11.38;;
77123;SDS011;66079;47.646;19.130;2022-12-18T03:08:12;30.25;;;11.10;;
77123;SDS011;66079;47.646;19.130;2022-12-18T03:11:20;26.40;;;10.27;;
77123;SDS011;66079;47.646;19.130;2022-12-18T03:14:43;30.45;;;11.40;;
77123;SDS011;66079;47.646;19.130;2022-12-18T03:18:14;29.50;;;11.57;;
77123;SDS011;66079;47.646;19.130;2022-12-18T03:21:19;29.98;;;11.70;;
77123;SDS011;66079;47.646;19.130;2022-12-18T03:24:26;31.08;;;12.00;;
77123;SDS011;66079;47.646;19.130;2022-12-18T03:27:32;29.53;;;12.07;;
77123;SDS011;66079;47.646;19.130;2022-12-18T03:30:41;30.02;;;10.93;;
77123;SDS011;66079;47.646;19.130;2022-12-18T03:37:05;31.95;;;12.68;;
77123;SDS011;66079;47.646;19.130;2022-12-18T03:40:08;32.92;;;12.70;;
77123;SDS011;66079;47.646;19.130;2022-12-18T03:46:48;30.98;;;11.55;;
77123;SDS011;66079;47.646;19.130;2022-12-18T03:50:06;28.70;;;10.97;;
77123;SDS011;66079;47.646;19.130;2022-12-18T03:53:53;32.00;;;11.90;;
77123;SDS011;66079;47.646;19.130;2022-12-18T03:57:06;27.95;;;11.95;;
77123;SDS011;66079;47.646;19.130;2022-12-18T04:00:14;30.77;;;12.40;;
77123;SDS011;66079;47.646;19.130;2022-12-18T04:03:39;31.25;;;12.68;;
77123;SDS011;66079;47.646;19.130;2022-12-18T04:06:46;31.05;;;12.00;;
77123;SDS011;66079;47.646;19.130;2022-12-18T04:09:53;34.60;;;12.70;;
77123;SDS011;66079;47.646;19.130;2022-12-18T04:12:59;32.63;;;12.63;;
77123;SDS011;66079;47.646;19.130;2022-12-18T04:16:02;34.15;;;12.60;;
77123;SDS011;66079;47.646;19.130;2022-12-18T04:19:05;34.25;;;12.60;;
77123;SDS011;66079;47.646;19.130;2022-12-18T04:22:13;36.30;;;13.60;;
77123;SDS011;66079;47.646;19.130;2022-12-18T04:25:20;31.70;;;12.77;;
77123;SDS011;66079;47.646;19.130;2022-12-18T04:28:38;34.65;;;13.10;;
77123;SDS011;66079;47.646;19.130;2022-12-18T04:31:41;33.50;;;12.10;;
77123;SDS011;66079;47.646;19.130;2022-12-18T04:34:44;31.05;;;11.82;;
77123;SDS011;66079;47.646;19.130;2022-12-18T04:37:46;34.70;;;13.23;;
77123;SDS011;66079;47.646;19.130;2022-12-18T04:40:50;33.97;;;12.93;;
77123;SDS011;66079;47.646;19.130;2022-12-18T04:43:59;34.22;;;13.02;;
77123;SDS011;66079;47.646;19.130;2022-12-18T04:47:02;36.88;;;13.95;;
77123;SDS011;66079;47.646;19.130;2022-12-18T04:50:05;39.55;;;15.02;;
77123;SDS011;66079;47.646;19.130;2022-12-18T04:53:08;38.57;;;14.20;;
77123;SDS011;66079;47.646;19.130;2022-12-18T04:56:12;34.72;;;14.32;;
77123;SDS011;66079;47.646;19.130;2022-12-18T04:59:16;36.88;;;15.27;;
77123;SDS011;66079;47.646;19.130;2022-12-18T05:02:19;35.53;;;13.63;;
77123;SDS011;66079;47.646;19.130;2022-12-18T05:05:21;40.03;;;14.73;;
77123;SDS011;66079;47.646;19.130;2022-12-18T05:08:24;36.75;;;14.85;;
77123;SDS011;66079;47.646;19.130;2022-12-18T05:11:26;35.67;;;14.48;;
77123;SDS011;66079;47.646;19.130;2022-12-18T05:14:29;38.42;;;14.57;;
77123;SDS011;66079;47.646;19.130;2022-12-18T05:17:31;40.17;;;14.88;;
77123;SDS011;66079;47.646;19.130;2022-12-18T05:20:34;33.92;;;14.85;;
77123;SDS011;66079;47.646;19.130;2022-12-18T05:23:36;32.20;;;13.93;;
77123;SDS011;66079;47.646;19.130;2022-12-18T05:26:40;38.90;;;14.60;;
77123;SDS011;66079;47.646;19.130;2022-12-18T05:29:42;36.67;;;15.45;;
77123;SDS011;66079;47.646;19.130;2022-12-18T05:32:45;32.57;;;14.17;;
77123;SDS011;66079;47.646;19.130;2022-12-18T05:35:51;38.17;;;15.00;;
77123;SDS011;66079;47.646;19.130;2022-12-18T05:38:58;37.85;;;15.32;;
77123;SDS011;66079;47.646;19.130;2022-12-18T05:42:02;40.75;;;15.43;;
77123;SDS011;66079;47.646;19.130;2022-12-18T05:45:05;44.85;;;15.30;;
77123;SDS011;66079;47.646;19.130;2022-12-18T05:48:08;41.47;;;15.32;;
77123;SDS011;66079;47.646;19.130;2022-12-18T05:51:16;38.20;;;15.32;;
77123;SDS011;66079;47.646;19.130;2022-12-18T05:54:20;42.63;;;14.30;;
77123;SDS011;66079;47.646;19.130;2022-12-18T05:57:23;37.20;;;15.18;;
77123;SDS011;66079;47.646;19.130;2022-12-18T06:00:26;37.95;;;14.93;;
77123;SDS011;66079;47.646;19.130;2022-12-18T06:03:29;41.33;;;15.00;;
77123;SDS011;66079;47.646;19.130;2022-12-18T06:06:35;36.63;;;14.73;;
77123;SDS011;66079;47.646;19.130;2022-12-18T06:09:38;41.80;;;16.05;;
77123;SDS011;66079;47.646;19.130;2022-12-18T06:12:40;36.13;;;14.27;;
77123;SDS011;66079;47.646;19.130;2022-12-18T06:15:43;37.22;;;14.75;;
77123;SDS011;66079;47.646;19.130;2022-12-18T06:18:45;42.83;;;16.70;;
77123;SDS011;66079;47.646;19.130;2022-12-18T06:21:49;43.15;;;16.30;;
77123;SDS011;66079;47.646;19.130;2022-12-18T06:24:52;39.77;;;15.70;;
77123;SDS011;66079;47.646;19.130;2022-12-18T06:27:55;37.35;;;14.73;;
77123;SDS011;66079;47.646;19.130;2022-12-18T06:30:57;34.95;;;14.68;;
77123;SDS011;66079;47.646;19.130;2022-12-18T06:34:03;40.03;;;14.60;;
77123;SDS011;66079;47.646;19.130;2022-12-18T06:37:06;37.00;;;14.43;;
77123;SDS011;66079;47.646;19.130;2022-12-18T06:40:09;43.33;;;14.95;;
77123;SDS011;66079;47.646;19.130;2022-12-18T06:43:12;39.88;;;14.35;;
77123;SDS011;66079;47.646;19.130;2022-12-18T06:46:14;38.15;;;13.98;;
77123;SDS011;66079;47.646;19.130;2022-12-18T06:49:17;36.08;;;13.70;;
77123;SDS011;66079;47.646;19.130;2022-12-18T06:52:19;37.35;;;13.35;;
77123;SDS011;66079;47.646;19.130;2022-12-18T06:55:22;40.03;;;14.47;;
77123;SDS011;66079;47.646;19.130;2022-12-18T06:58:25;42.35;;;15.35;;
77123;SDS011;66079;47.646;19.130;2022-12-18T07:01:27;38.72;;;14.70;;
77123;SDS011;66079;47.646;19.130;2022-12-18T07:04:30;39.93;;;15.20;;
77123;SDS011;66079;47.646;19.130;2022-12-18T07:07:34;39.95;;;15.40;;
77123;SDS011;66079;47.646;19.130;2022-12-18T07:10:40;40.95;;;16.10;;
77123;SDS011;66079;47.646;19.130;2022-12-18T07:13:49;41.20;;;16.23;;
77123;SDS011;66079;47.646;19.130;2022-12-18T07:16:52;45.85;;;18.02;;
77123;SDS011;66079;47.646;19.130;2022-12-18T07:19:54;44.95;;;18.48;;
77123;SDS011;66079;47.646;19.130;2022-12-18T07:22:57;48.00;;;19.77;;
77123;SDS011;66079;47.646;19.130;2022-12-18T07:26:00;49.33;;;19.60;;
77123;SDS011;66079;47.646;19.130;2022-12-18T07:29:13;52.47;;;19.20;;
77123;SDS011;66079;47.646;19.130;2022-12-18T07:32:16;43.75;;;17.02;;
77123;SDS011;66079;47.646;19.130;2022-12-18T07:35:19;43.97;;;17.37;;
77123;SDS011;66079;47.646;19.130;2022-12-18T07:38:26;45.20;;;17.42;;
77123;SDS011;66079;47.646;19.130;2022-12-18T07:41:29;41.15;;;16.85;;
77123;SDS011;66079;47.646;19.130;2022-12-18T07:44:39;41.70;;;16.10;;
77123;SDS011;66079;47.646;19.130;2022-12-18T07:47:41;38.60;;;15.60;;
77123;SDS011;66079;47.646;19.130;2022-12-18T07:50:44;35.45;;;15.63;;
77123;SDS011;66079;47.646;19.130;2022-12-18T07:53:47;43.28;;;16.20;;
77123;SDS011;66079;47.646;19.130;2022-12-18T07:56:53;42.20;;;16.10;;
77123;SDS011;66079;47.646;19.130;2022-12-18T07:59:56;37.53;;;15.35;;
77123;SDS011;66079;47.646;19.130;2022-12-18T08:02:59;42.55;;;15.60;;
77123;SDS011;66079;47.646;19.130;2022-12-18T08:06:03;40.60;;;16.17;;
77123;SDS011;66079;47.646;19.130;2022-12-18T08:09:09;37.25;;;14.00;;
77123;SDS011;66079;47.646;19.130;2022-12-18T08:12:12;39.22;;;14.88;;
77123;SDS011;66079;47.646;19.130;2022-12-18T08:15:14;34.70;;;13.85;;
77123;SDS011;66079;47.646;19.130;2022-12-18T08:18:17;42.80;;;16.83;;
77123;SDS011;66079;47.646;19.130;2022-12-18T08:21:29;42.22;;;15.80;;
77123;SDS011;66079;47.646;19.130;2022-12-18T08:24:32;45.72;;;16.90;;
77123;SDS011;66079;47.646;19.130;2022-12-18T08:27:35;39.77;;;15.20;;
77123;SDS011;66079;47.646;19.130;2022-12-18T08:30:38;43.53;;;16.92;;
77123;SDS011;66079;47.646;19.130;2022-12-18T08:33:41;43.80;;;17.95;;
77123;SDS011;66079;47.646;19.130;2022-12-18T08:36:45;46.27;;;18.23;;
77123;SDS011;66079;47.646;19.130;2022-12-18T08:39:47;37.75;;;15.82;;
77123;SDS011;66079;47.646;19.130;2022-12-18T08:42:50;33.92;;;15.57;;
77123;SDS011;66079;47.646;19.130;2022-12-18T08:46:11;40.47;;;16.92;;
77123;SDS011;66079;47.646;19.130;2022-12-18T08:49:14;42.17;;;16.80;;
77123;SDS011;66079;47.646;19.130;2022-12-18T08:52:17;44.22;;;16.85;;
77123;SDS011;66079;47.646;19.130;2022-12-18T08:55:19;39.50;;;15.35;;
77123;SDS011;66079;47.646;19.130;2022-12-18T08:58:23;38.17;;;15.60;;
77123;SDS011;66079;47.646;19.130;2022-12-18T09:01:26;38.15;;;14.98;;
77123;SDS011;66079;47.646;19.130;2022-12-18T09:04:29;31.45;;;13.35;;
77123;SDS011;66079;47.646;19.130;2022-12-18T09:07:31;38.67;;;16.20;;
77123;SDS011;66079;47.646;19.130;2022-12-18T09:10:34;36.15;;;15.38;;
77123;SDS011;66079;47.646;19.130;2022-12-18T09:13:44;42.30;;;15.90;;
77123;SDS011;66079;47.646;19.130;2022-12-18T09:16:47;37.80;;;15.82;;
77123;SDS011;66079;47.646;19.130;2022-12-18T09:19:49;34.90;;;14.27;;
77123;SDS011;66079;47.646;19.130;2022-12-18T09:22:52;34.10;;;15.05;;
77123;SDS011;66079;47.646;19.130;2022-12-18T09:25:58;37.35;;;15.13;;
77123;SDS011;66079;47.646;19.130;2022-12-18T09:29:02;37.53;;;16.37;;
77123;SDS011;66079;47.646;19.130;2022-12-18T09:32:05;35.97;;;15.57;;
77123;SDS011;66079;47.646;19.130;2022-12-18T09:35:07;34.28;;;15.38;;
77123;SDS011;66079;47.646;19.130;2022-12-18T09:38:13;39.63;;;15.40;;
77123;SDS011;66079;47.646;19.130;2022-12-18T09:44:44;39.75;;;16.38;;
77123;SDS011;66079;47.646;19.130;2022-12-18T09:47:52;39.95;;;16.50;;
77123;SDS011;66079;47.646;19.130;2022-12-18T09:50:59;35.63;;;17.17;;
77123;SDS011;66079;47.646;19.130;2022-12-18T09:54:14;34.13;;;15.63;;
77123;SDS011;66079;47.646;19.130;2022-12-18T09:57:32;32.28;;;15.07;;
77123;SDS011;66079;47.646;19.130;2022-12-18T10:00:39;31.52;;;15.35;;
77123;SDS011;66079;47.646;19.130;2022-12-18T10:03:43;31.50;;;15.45;;
77123;SDS011;66079;47.646;19.130;2022-12-18T10:07:07;34.77;;;15.63;;
77123;SDS011;66079;47.646;19.130;2022-12-18T10:13:45;36.35;;;15.77;;
77123;SDS011;66079;47.646;19.130;2022-12-18T10:17:10;31.02;;;14.70;;
77123;SDS011;66079;47.646;19.130;2022-12-18T10:20:40;28.85;;;14.07;;
77123;SDS011;66079;47.646;19.130;2022-12-18T10:23:50;31.53;;;14.03;;
77123;SDS011;66079;47.646;19.130;2022-12-18T10:30:28;29.95;;;15.15;;
77123;SDS011;66079;47.646;19.130;2022-12-18T10:33:32;28.52;;;13.88;;
77123;SDS011;66079;47.646;19.130;2022-12-18T10:36:35;29.15;;;14.25;;
77123;SDS011;66079;47.646;19.130;2022-12-18T10:39:38;30.10;;;14.47;;
77123;SDS011;66079;47.646;19.130;2022-12-18T10:42:41;28.85;;;14.75;;
77123;SDS011;66079;47.646;19.130;2022-12-18T10:45:57;28.42;;;15.07;;
77123;SDS011;66079;47.646;19.130;2022-12-18T10:49:21;25.48;;;13.25;;
77123;SDS011;66079;47.646;19.130;2022-12-18T10:52:27;29.35;;;14.25;;
77123;SDS011;66079;47.646;19.130;2022-12-18T10:55:37;28.83;;;14.50;;
77123;SDS011;66079;47.646;19.130;2022-12-18T10:58:41;29.17;;;15.43;;
77123;SDS011;66079;47.646;19.130;2022-12-18T11:01:46;32.83;;;15.93;;
77123;SDS011;66079;47.646;19.130;2022-12-18T11:04:51;30.52;;;15.57;;
77123;SDS011;66079;47.646;19.130;2022-12-18T11:07:55;29.65;;;15.63;;
77123;SDS011;66079;47.646;19.130;2022-12-18T11:10:58;27.13;;;15.37;;
77123;SDS011;66079;47.646;19.130;2022-12-18T11:14:05;30.50;;;16.17;;
77123;SDS011;66079;47.646;19.130;2022-12-18T11:17:33;32.08;;;15.88;;
77123;SDS011;66079;47.646;19.130;2022-12-18T11:20:38;33.42;;;16.48;;
77123;SDS011;66079;47.646;19.130;2022-12-18T11:23:51;33.20;;;16.88;;
77123;SDS011;66079;47.646;19.130;2022-12-18T11:26:56;24.70;;;13.57;;
77123;SDS011;66079;47.646;19.130;2022-12-18T11:30:10;30.25;;;14.95;;
77123;SDS011;66079;47.646;19.130;2022-12-18T11:33:27;26.98;;;14.95;;
77123;SDS011;66079;47.646;19.130;2022-12-18T11:36:32;25.48;;;13.95;;
77123;SDS011;66079;47.646;19.130;2022-12-18T11:39:46;25.70;;;15.20;;
77123;SDS011;66079;47.646;19.130;2022-12-18T11:43:02;26.50;;;14.40;;
77123;SDS011;66079;47.646;19.130;2022-12-18T11:46:14;24.95;;;14.20;;
77123;SDS011;66079;47.646;19.130;2022-12-18T11:49:25;26.83;;;14.77;;
77123;SDS011;66079;47.646;19.130;2022-12-18T11:52:38;27.05;;;14.05;;
77123;SDS011;66079;47.646;19.130;2022-12-18T12:09:31;26.40;;;15.05;;
77123;SDS011;66079;47.646;19.130;2022-12-18T12:16:06;28.03;;;15.47;;
77123;SDS011;66079;47.646;19.130;2022-12-18T12:19:29;26.40;;;14.20;;
77123;SDS011;66079;47.646;19.130;2022-12-18T12:26:31;22.27;;;13.73;;
77123;SDS011;66079;47.646;19.130;2022-12-18T12:29:46;23.88;;;13.32;;
77123;SDS011;66079;47.646;19.130;2022-12-18T12:39:22;24.92;;;14.05;;
77123;SDS011;66079;47.646;19.130;2022-12-18T12:42:31;26.67;;;13.13;;
77123;SDS011;66079;47.646;19.130;2022-12-18T12:49:13;24.77;;;13.53;;
77123;SDS011;66079;47.646;19.130;2022-12-18T12:55:43;24.77;;;13.88;;
77123;SDS011;66079;47.646;19.130;2022-12-18T13:02:06;24.10;;;13.25;;
77123;SDS011;66079;47.646;19.130;2022-12-18T13:05:19;25.33;;;14.50;;
77123;SDS011;66079;47.646;19.130;2022-12-18T13:08:28;25.95;;;14.00;;
77123;SDS011;66079;47.646;19.130;2022-12-18T13:11:43;24.67;;;13.60;;
77123;SDS011;66079;47.646;19.130;2022-12-18T13:15:22;23.60;;;12.82;;
77123;SDS011;66079;47.646;19.130;2022-12-18T13:18:27;25.05;;;13.13;;
77123;SDS011;66079;47.646;19.130;2022-12-18T13:21:32;26.70;;;13.10;;
77123;SDS011;66079;47.646;19.130;2022-12-18T13:24:35;24.85;;;12.23;;
77123;SDS011;66079;47.646;19.130;2022-12-18T13:30:49;27.25;;;14.85;;
77123;SDS011;66079;47.646;19.130;2022-12-18T13:34:18;26.60;;;15.45;;
77123;SDS011;66079;47.646;19.130;2022-12-18T13:43:45;29.77;;;16.33;;
77123;SDS011;66079;47.646;19.130;2022-12-18T13:46:50;33.13;;;16.88;;
77123;SDS011;66079;47.646;19.130;2022-12-18T13:49:54;32.80;;;16.70;;
77123;SDS011;66079;47.646;19.130;2022-12-18T13:52:58;31.33;;;17.20;;
77123;SDS011;66079;47.646;19.130;2022-12-18T13:56:01;31.58;;;16.90;;
77123;SDS011;66079;47.646;19.130;2022-12-18T13:59:10;33.58;;;17.55;;
77123;SDS011;66079;47.646;19.130;2022-12-18T14:02:21;33.28;;;17.02;;
77123;SDS011;66079;47.646;19.130;2022-12-18T14:05:27;31.52;;;16.30;;
77123;SDS011;66079;47.646;19.130;2022-12-18T14:08:34;28.60;;;15.90;;
77123;SDS011;66079;47.646;19.130;2022-12-18T14:11:45;33.05;;;16.23;;
77123;SDS011;66079;47.646;19.130;2022-12-18T14:14:50;33.03;;;15.70;;
77123;SDS011;66079;47.646;19.130;2022-12-18T14:18:03;31.83;;;15.75;;
77123;SDS011;66079;47.646;19.130;2022-12-18T14:21:30;34.58;;;16.05;;
77123;SDS011;66079;47.646;19.130;2022-12-18T14:24:36;31.50;;;15.50;;
77123;SDS011;66079;47.646;19.130;2022-12-18T14:27:46;31.30;;;16.17;;
77123;SDS011;66079;47.646;19.130;2022-12-18T14:30:50;30.45;;;15.32;;
77123;SDS011;66079;47.646;19.130;2022-12-18T14:33:53;33.45;;;15.35;;
77123;SDS011;66079;47.646;19.130;2022-12-18T14:36:55;34.45;;;15.45;;
77123;SDS011;66079;47.646;19.130;2022-12-18T14:39:59;36.97;;;15.93;;
77123;SDS011;66079;47.646;19.130;2022-12-18T14:43:12;35.83;;;15.75;;
77123;SDS011;66079;47.646;19.130;2022-12-18T14:49:33;37.65;;;16.52;;
77123;SDS011;66079;47.646;19.130;2022-12-18T14:52:36;39.78;;;16.27;;
77123;SDS011;66079;47.646;19.130;2022-12-18T14:55:43;39.80;;;16.87;;
77123;SDS011;66079;47.646;19.130;2022-12-18T14:58:50;38.45;;;16.27;;
77123;SDS011;66079;47.646;19.130;2022-12-18T15:02:04;34.47;;;15.65;;
77123;SDS011;66079;47.646;19.130;2022-12-18T15:11:56;41.20;;;17.83;;
77123;SDS011;66079;47.646;19.130;2022-12-18T15:15:01;38.65;;;16.20;;
77123;SDS011;66079;47.646;19.130;2022-12-18T15:21:16;40.90;;;18.85;;
77123;SDS011;66079;47.646;19.130;2022-12-18T15:24:23;41.57;;;17.23;;
77123;SDS011;66079;47.646;19.130;2022-12-18T15:30:40;39.88;;;17.60;;
77123;SDS011;66079;47.646;19.130;2022-12-18T15:37:10;38.63;;;16.93;;
77123;SDS011;66079;47.646;19.130;2022-12-18T15:40:20;37.88;;;16.20;;
77123;SDS011;66079;47.646;19.130;2022-12-18T15:43:24;43.38;;;18.20;;
77123;SDS011;66079;47.646;19.130;2022-12-18T15:46:37;41.10;;;17.10;;
77123;SDS011;66079;47.646;19.130;2022-12-18T15:49:41;43.53;;;18.17;;
77123;SDS011;66079;47.646;19.130;2022-12-18T15:52:45;43.38;;;18.08;;
77123;SDS011;66079;47.646;19.130;2022-12-18T15:55:50;40.40;;;17.95;;
77123;SDS011;66079;47.646;19.130;2022-12-18T15:59:15;41.13;;;18.17;;
77123;SDS011;66079;47.646;19.130;2022-12-18T16:02:20;41.05;;;18.35;;
77123;SDS011;66079;47.646;19.130;2022-12-18T16:05:26;43.40;;;18.05;;
77123;SDS011;66079;47.646;19.130;2022-12-18T16:08:30;42.13;;;17.77;;
77123;SDS011;66079;47.646;19.130;2022-12-18T16:11:34;44.83;;;20.33;;
77123;SDS011;66079;47.646;19.130;2022-12-18T16:14:45;52.78;;;23.08;;
77123;SDS011;66079;47.646;19.130;2022-12-18T16:17:48;56.30;;;25.13;;
77123;SDS011;66079;47.646;19.130;2022-12-18T16:20:51;69.47;;;29.92;;
77123;SDS011;66079;47.646;19.130;2022-12-18T16:23:54;61.00;;;28.03;;
77123;SDS011;66079;47.646;19.130;2022-12-18T16:26:57;66.18;;;29.67;;
77123;SDS011;66079;47.646;19.130;2022-12-18T16:30:01;71.82;;;31.50;;
77123;SDS011;66079;47.646;19.130;2022-12-18T16:33:05;66.32;;;29.02;;
77123;SDS011;66079;47.646;19.130;2022-12-18T16:36:09;61.63;;;27.90;;
77123;SDS011;66079;47.646;19.130;2022-12-18T16:39:11;65.45;;;28.48;;
77123;SDS011;66079;47.646;19.130;2022-12-18T16:42:15;69.82;;;28.55;;
77123;SDS011;66079;47.646;19.130;2022-12-18T16:45:21;68.40;;;29.30;;
77123;SDS011;66079;47.646;19.130;2022-12-18T16:48:24;60.13;;;26.73;;
77123;SDS011;66079;47.646;19.130;2022-12-18T16:51:27;61.78;;;27.23;;
77123;SDS011;66079;47.646;19.130;2022-12-18T16:54:30;59.47;;;27.70;;
77123;SDS011;66079;47.646;19.130;2022-12-18T16:57:33;59.77;;;24.80;;
77123;SDS011;66079;47.646;19.130;2022-12-18T17:00:37;59.40;;;27.75;;
77123;SDS011;66079;47.646;19.130;2022-12-18T17:03:40;61.35;;;26.67;;
77123;SDS011;66079;47.646;19.130;2022-12-18T17:06:45;55.97;;;24.60;;
77123;SDS011;66079;47.646;19.130;2022-12-18T17:09:53;58.67;;;24.70;;
77123;SDS011;66079;47.646;19.130;2022-12-18T17:12:56;58.90;;;24.63;;
77123;SDS011;66079;47.646;19.130;2022-12-18T17:16:06;57.17;;;23.58;;
77123;SDS011;66079;47.646;19.130;2022-12-18T17:19:10;53.10;;;23.17;;
77123;SDS011;66079;47.646;19.130;2022-12-18T17:22:19;52.67;;;23.10;;
77123;SDS011;66079;47.646;19.130;2022-12-18T17:25:23;57.50;;;23.20;;
77123;SDS011;66079;47.646;19.130;2022-12-18T17:28:27;51.67;;;22.17;;
77123;SDS011;66079;47.646;19.130;2022-12-18T17:31:30;52.90;;;22.48;;
77123;SDS011;66079;47.646;19.130;2022-12-18T17:34:33;54.08;;;24.42;;
77123;SDS011;66079;47.646;19.130;2022-12-18T17:37:37;58.78;;;24.58;;
77123;SDS011;66079;47.646;19.130;2022-12-18T17:40:40;54.88;;;24.85;;
77123;SDS011;66079;47.646;19.130;2022-12-18T17:43:51;65.38;;;27.05;;
77123;SDS011;66079;47.646;19.130;2022-12-18T17:46:58;55.83;;;24.67;;
77123;SDS011;66079;47.646;19.130;2022-12-18T17:50:02;56.93;;;23.73;;
77123;SDS011;66079;47.646;19.130;2022-12-18T17:53:05;60.03;;;24.60;;
77123;SDS011;66079;47.646;19.130;2022-12-18T17:56:08;56.10;;;26.13;;
77123;SDS011;66079;47.646;19.130;2022-12-18T17:59:14;64.00;;;27.70;;
77123;SDS011;66079;47.646;19.130;2022-12-18T18:02:17;55.30;;;25.05;;
77123;SDS011;66079;47.646;19.130;2022-12-18T18:05:20;57.42;;;25.23;;
77123;SDS011;66079;47.646;19.130;2022-12-18T18:08:23;58.30;;;25.38;;
77123;SDS011;66079;47.646;19.130;2022-12-18T18:11:27;58.83;;;24.23;;
77123;SDS011;66079;47.646;19.130;2022-12-18T18:14:48;52.20;;;23.17;;
77123;SDS011;66079;47.646;19.130;2022-12-18T18:17:51;48.08;;;22.30;;
77123;SDS011;66079;47.646;19.130;2022-12-18T18:20:54;49.87;;;23.70;;
77123;SDS011;66079;47.646;19.130;2022-12-18T18:23:58;61.33;;;25.90;;
77123;SDS011;66079;47.646;19.130;2022-12-18T18:27:02;61.00;;;25.45;;
77123;SDS011;66079;47.646;19.130;2022-12-18T18:30:05;60.47;;;27.33;;
77123;SDS011;66079;47.646;19.130;2022-12-18T18:33:09;61.83;;;27.15;;
77123;SDS011;66079;47.646;19.130;2022-12-18T18:36:13;65.60;;;27.52;;
77123;SDS011;66079;47.646;19.130;2022-12-18T18:39:16;66.43;;;28.58;;
77123;SDS011;66079;47.646;19.130;2022-12-18T18:42:18;56.50;;;25.88;;
77123;SDS011;66079;47.646;19.130;2022-12-18T18:45:21;65.80;;;29.75;;
77123;SDS011;66079;47.646;19.130;2022-12-18T18:48:25;68.40;;;28.17;;
77123;SDS011;66079;47.646;19.130;2022-12-18T18:51:31;70.93;;;30.83;;
77123;SDS011;66079;47.646;19.130;2022-12-18T18:54:36;73.97;;;31.40;;
77123;SDS011;66079;47.646;19.130;2022-12-18T18:57:53;69.88;;;31.08;;
77123;SDS011;66079;47.646;19.130;2022-12-18T19:01:02;70.65;;;31.15;;
77123;SDS011;66079;47.646;19.130;2022-12-18T19:04:09;99.72;;;43.17;;
77123;SDS011;66079;47.646;19.130;2022-12-18T19:07:12;100.50;;;43.10;;
77123;SDS011;66079;47.646;19.130;2022-12-18T19:10:32;99.03;;;41.53;;
77123;SDS011;66079;47.646;19.130;2022-12-18T19:13:35;74.20;;;33.73;;
77123;SDS011;66079;47.646;19.130;2022-12-18T19:16:37;77.03;;;33.75;;
77123;SDS011;66079;47.646;19.130;2022-12-18T19:19:42;82.90;;;34.13;;
77123;SDS011;66079;47.646;19.130;2022-12-18T19:22:45;80.70;;;34.70;;
77123;SDS011;66079;47.646;19.130;2022-12-18T19:26:00;88.95;;;38.67;;
77123;SDS011;66079;47.646;19.130;2022-12-18T19:29:24;78.05;;;35.50;;
77123;SDS011;66079;47.646;19.130;2022-12-18T19:32:29;88.03;;;35.72;;
77123;SDS011;66079;47.646;19.130;2022-12-18T19:35:32;88.88;;;38.63;;
77123;SDS011;66079;47.646;19.130;2022-12-18T19:38:35;83.65;;;36.50;;
77123;SDS011;66079;47.646;19.130;2022-12-18T19:41:38;84.25;;;34.15;;
77123;SDS011;66079;47.646;19.130;2022-12-18T19:44:43;75.57;;;33.47;;
77123;SDS011;66079;47.646;19.130;2022-12-18T19:47:46;80.47;;;34.22;;
77123;SDS011;66079;47.646;19.130;2022-12-18T19:50:49;81.03;;;35.78;;